• Join FlightAware (Why Join?)
  • Login
  • US Flag 
12:28AM EST


 

Airport Tracker/Info


-or-


 

Live Flight TrackerFlight Track Log ✈ RPA3228 ✈ 17-Jul-2013 ✈ KBNA - KDCA

Flight Track Log - Related Links

Times and Time Zones

All times are in EDT time to prevent confusion due to time zone crossing. See the RPA3228 flight status page for this flight to view local times or setup timezone preferences in your user account.

Time Position Orientation Groundspeed Altitude Reporting Facility
EDT Latitude Longitude Course Direction KTS MPH feet Rate Location/Type
08:05AM 36.1333 -86.6500 64° Northeast 153 176 1,400  Level Nashville TRACON
08:05AM 36.1500 -86.6333 39° Northeast 163 188 2,400 1,800 Climbing Nashville TRACON
08:06AM 36.1550 -86.5758 84° East 236 272 4,000 2,520 Climbing Memphis Center
08:07AM 36.1633 -86.2836 76° East  Level FlightAware Approximate
08:07AM 36.1628 -86.4881 84° East 288 331 7,200  Level Memphis Center
08:08AM 36.1871 -86.1572 80° East  Level FlightAware Approximate
08:08AM 36.1703 -86.3950 84° East 293 337 10,500  Level Memphis Center
08:09AM 36.2136 -86.0328 64° Northeast  Level FlightAware Approximate
08:09AM 36.1814 -86.2839 83° East 304 350 13,000  Level Memphis Center
08:10AM 36.2601 -85.9165 64° Northeast  Level FlightAware Approximate
08:10AM 36.1919 -86.1625 84° East 320 368 15,900  Level Memphis Center
08:11AM 36.2089 -86.0486 80° East 333 383 18,200 2,400 Climbing Memphis Center
08:12AM 36.2572 -85.9431 60° Northeast 333 383 20,700 2,280 Climbing Memphis Center
08:13AM 36.3111 -85.8208 61° Northeast 360 414 23,400 1,920 Climbing Indianapolis Center
08:14AM 36.3633 -85.7108 59° Northeast 368 423 25,100 1,560 Climbing Indianapolis Center
08:15AM 36.4189 -85.5944 59° Northeast 386 444 26,700 1,500 Climbing Indianapolis Center
08:16AM 36.4875 -85.4492 60° Northeast 403 464 28,300 1,500 Climbing Indianapolis Center
08:18AM 36.5472 -85.3247 59° Northeast 414 476 29,900 1,320 Climbing Indianapolis Center
08:19AM 36.6197 -85.2106 52° Northeast 419 482 31,100 1,080 Climbing Indianapolis Center
08:20AM 36.6989 -85.0953 49° Northeast 432 497 32,200 900 Climbing Indianapolis Center
08:21AM 36.7789 -84.9842 48° Northeast 429 494 33,000 360 Climbing Indianapolis Center
08:22AM 36.8522 -84.8811 48° Northeast 400 460 33,000  Level Indianapolis Center
08:23AM 36.8967 -84.7561 66° East 394 453 33,000  Level Indianapolis Center
08:24AM 36.9303 -84.6261 72° East 391 450 33,000  Level Indianapolis Center
08:25AM 36.9658 -84.4847 72° East 391 450 33,000  Level Indianapolis Center
08:26AM 36.9994 -84.3550 72° East 391 450 33,000  Level Indianapolis Center
08:27AM 37.0383 -84.2047 72° East 389 448 33,000  Level Indianapolis Center
08:28AM 37.0714 -84.0733 72° East 393 452 33,000  Level Indianapolis Center
08:29AM 37.1047 -83.9436 72° East 391 450 33,000  Level Indianapolis Center
08:30AM 37.1389 -83.8131 72° East 394 453 33,000  Level Indianapolis Center
08:31AM 37.1714 -83.6806 73° East 394 453 33,000  Level Indianapolis Center
08:32AM 37.2047 -83.5481 72° East 395 455 33,000  Level Indianapolis Center
08:33AM 37.2375 -83.4156 73° East 397 457 33,000  Level Indianapolis Center
08:34AM 37.2764 -83.2600 73° East 396 456 33,000  Level Indianapolis Center
08:35AM 37.3092 -83.1278 73° East 395 455 33,000  Level Indianapolis Center
08:36AM 37.3419 -82.9953 73° East 394 453 33,000  Level Indianapolis Center
08:37AM 37.3731 -82.8656 73° East 387 445 33,000  Level Indianapolis Center
08:38AM 37.4044 -82.7344 73° East 387 445 33,000  Level Indianapolis Center
08:39AM 37.4356 -82.6053 73° East 385 443 33,000  Level Indianapolis Center
08:40AM 37.4667 -82.4747 73° East 386 444 33,000  Level Indianapolis Center
08:41AM 37.5036 -82.3211 73° East 391 450 33,000  Level Indianapolis Center
08:42AM 37.5353 -82.1906 73° East 390 449 33,000  Level Indianapolis Center
08:43AM 37.5661 -82.0586 74° East 391 450 33,000  Level Indianapolis Center
08:44AM 37.5964 -81.9278 74° East 389 448 33,000  Level Indianapolis Center
08:45AM 37.6264 -81.7972 74° East 387 445 33,000  Level Indianapolis Center
08:46AM 37.6581 -81.6653 73° East 390 449 33,000  Level Indianapolis Center
08:47AM 37.6925 -81.5114 74° East 390 449 33,000  Level Indianapolis Center
08:48AM 37.7233 -81.3822 73° East 391 450 33,000  Level Indianapolis Center
08:49AM 37.7517 -81.2547 74° East 389 448 33,000  Level Indianapolis Center
08:50AM 37.7797 -81.1258 75° East 392 451 33,000  Level Indianapolis Center
08:52AM 37.8292 -80.9858 66° East 392 451 33,000  Level Indianapolis Center
08:53AM 37.8736 -80.8603 66° East 393 452 33,000  Level Indianapolis Center
08:54AM 37.9183 -80.7331 66° East 396 456 33,000  Level Indianapolis Center
08:55AM 37.9636 -80.6058 66° East 397 457 33,000 -360 Level Indianapolis Center
08:56AM 38.0153 -80.4603 66° East 394 453 32,300 -840 Descending Indianapolis Center
08:57AM 38.0589 -80.3356 66° East 395 455 31,300 -660 Descending Indianapolis Center
08:58AM 38.1067 -80.1981 66° East 399 459 31,000 -180 Descending Indianapolis Center
08:59AM 38.1578 -80.0581 65° Northeast 404 465 31,000  Level Indianapolis Center
09:00AM 38.2008 -79.9317 67° East 399 459 31,000  Level Indianapolis Center
09:01AM 38.2461 -79.8053 65° Northeast 402 463 31,000  Level Indianapolis Center
09:02AM 38.3025 -79.6558 64° Northeast 392 451 31,000  Level Washington Center
09:03AM 38.3578 -79.4972 66° East 392 451 31,000 -1,080 Level Washington Center
09:04AM 38.4017 -79.3672 67° East 392 451 28,900 -1,500 Descending Washington Center
09:05AM 38.4350 -79.2364 72° East 403 464 28,000 -480 Descending Washington Center
09:06AM 38.4622 -79.0917 76° East 408 470 28,000 -300 Level Washington Center
09:07AM 38.4892 -78.9444 77° East 415 478 27,500 -1,380 Descending Washington Center
09:08AM 38.5078 -78.7994 81° East 415 478 25,200 -2,220 Descending Washington Center
09:09AM 38.5303 -78.6625 78° East 408 470 23,100 -1,620 Descending Washington Center
09:10AM 38.5503 -78.5278 79° East 398 458 22,000 -1,080 Descending Washington Center
09:11AM 38.5700 -78.3983 79° East 386 444 21,000 -1,320 Descending Washington Center
09:12AM 38.5939 -78.2692 77° East 379 436 19,400 -1,500 Descending Washington Center
09:13AM 38.6300 -78.1456 69° East 366 421 18,000 -1,620 Descending Washington Center
09:14AM 38.6656 -78.0325 68° East 354 407 16,200 -1,740 Descending Washington Center
09:15AM 38.7011 -77.9219 68° East 340 391 14,500 -1,620 Descending Washington Center
09:16AM 38.7386 -77.8192 65° Northeast 327 376 13,000 -1,380 Descending Washington Center
09:17AM 38.7900 -77.7436 49° Northeast 299 344 11,800 -1,320 Descending Washington Center
09:18AM 38.8394 -77.6519 55° Northeast 283 326 10,500 -1,200 Descending Washington Center
09:19AM 38.8681 -77.5700 66° East 273 314 9,400 -1,140 Descending Washington Center
09:20AM 38.9000 -77.4667 68° East 280 322 8,300 -1,320 Descending Potomac TRACON
09:21AM 38.8833 -77.3833 104° East 298 343 7,000 -1,200 Descending Potomac TRACON
09:22AM 38.8500 -77.2833 113° Southeast 284 327 6,000 -540 Descending Potomac TRACON
09:23AM 38.8000 -77.2000 128° Southeast 285 328 6,000 -480 Level Potomac TRACON
09:24AM 38.7667 -77.1333 123° Southeast 285 328 5,100 -1,140 Descending Potomac TRACON
09:25AM 38.6833 -77.1167 171° South 276 318 3,900 -900 Descending Potomac TRACON
09:26AM 38.6333 -77.0833 152° Southeast 242 278 3,400 -660 Descending Potomac TRACON
09:27AM 38.6667 -77.0333 49° Northeast 197 227 2,600 -840 Descending Potomac TRACON